Time;durP1;ratioP1;P1;durP2;ratioP2;P2;SDS_P1;SDS_P2;PMS_P1;PMS_P2;Temp;Humidity;BMP_temperature;BMP_pressure;BME280_temperature;BME280_humidity;BME280_pressure;Samples;Min_cycle;Max_cycle;Signal;HPM_P1;HPM_P2
2024/01/22 00:02:02;;;;;;;9.77;5.22;;;;;;;;;;5053412;28;20408;-73
2024/01/22 00:04:28;;;;;;;7.10;4.95;;;;;;;;;;5068775;28;20222;-75
2024/01/22 00:06:54;;;;;;;6.78;4.88;;;;;;;;;;5069623;28;20527;-73
2024/01/22 00:09:20;;;;;;;9.13;5.65;;;;;;;;;;5065781;28;20449;-73
2024/01/22 00:11:46;;;;;;;9.93;5.63;;;;;;;;;;5068194;28;20102;-74
2024/01/22 00:14:12;;;;;;;9.10;5.07;;;;;;;;;;5068314;28;20539;-76
2024/01/22 00:16:41;;;;;;;7.88;5.63;;;;;;;;;;5052772;28;20605;-73
2024/01/22 00:19:08;;;;;;;13.77;6.60;;;;;;;;;;5048670;28;20040;-73
2024/01/22 00:21:34;;;;;;;10.60;6.28;;;;;;;;;;5068084;28;20132;-74
2024/01/22 00:24:00;;;;;;;9.85;5.80;;;;;;;;;;5051025;28;20055;-75
2024/01/22 00:26:26;;;;;;;12.25;6.93;;;;;;;;;;5049308;28;20050;-74
2024/01/22 00:28:52;;;;;;;11.90;5.28;;;;;;;;;;5051881;28;20040;-74
2024/01/22 00:31:18;;;;;;;9.18;6.05;;;;;;;;;;5069083;28;20052;-74
2024/01/22 00:33:44;;;;;;;11.02;6.40;;;;;;;;;;5046576;28;20044;-74
2024/01/22 00:36:13;;;;;;;19.27;6.65;;;;;;;;;;5066832;28;20388;-74
2024/01/22 00:38:40;;;;;;;10.18;6.63;;;;;;;;;;5059070;28;20068;-74
2024/01/22 00:41:07;;;;;;;10.88;5.38;;;;;;;;;;5049074;28;20408;-73
2024/01/22 00:43:35;;;;;;;15.73;6.13;;;;;;;;;;5068583;28;20075;-74
2024/01/22 00:46:01;;;;;;;11.13;5.18;;;;;;;;;;5034693;28;20054;-74
2024/01/22 00:48:28;;;;;;;9.07;4.93;;;;;;;;;;5068189;28;20143;-73
2024/01/22 00:50:54;;;;;;;8.65;5.90;;;;;;;;;;5062943;28;20043;-74
2024/01/22 00:53:20;;;;;;;8.15;5.07;;;;;;;;;;5064539;28;20454;-74
2024/01/22 00:55:46;;;;;;;6.63;4.78;;;;;;;;;;5065221;28;20496;-74
2024/01/22 00:58:12;;;;;;;11.57;5.63;;;;;;;;;;5065422;28;20041;-74
2024/01/22 01:00:41;;;;;;;11.38;5.68;;;;;;;;;;5066044;28;20048;-76
2024/01/22 01:03:08;;;;;;;8.63;5.35;;;;;;;;;;5067398;28;20079;-73
2024/01/22 01:05:34;;;;;;;9.43;5.00;;;;;;;;;;5053089;28;20036;-74
2024/01/22 01:08:00;;;;;;;12.02;6.10;;;;;;;;;;5067304;28;20035;-75
2024/01/22 01:10:26;;;;;;;8.38;5.47;;;;;;;;;;5054771;28;20071;-73
2024/01/22 01:12:52;;;;;;;10.32;6.25;;;;;;;;;;5037921;28;20102;-74
2024/01/22 01:15:20;;;;;;;10.07;5.40;;;;;;;;;;5070497;28;20077;-75
2024/01/22 01:17:46;;;;;;;9.75;5.80;;;;;;;;;;5071052;28;20036;-74
2024/01/22 01:20:13;;;;;;;9.20;5.65;;;;;;;;;;5069706;28;20569;-74
2024/01/22 01:22:39;;;;;;;12.07;6.05;;;;;;;;;;5065578;28;20043;-74
2024/01/22 01:25:05;;;;;;;13.85;5.97;;;;;;;;;;5052758;28;20056;-74
2024/01/22 01:27:31;;;;;;;10.07;4.88;;;;;;;;;;5052098;28;20038;-73
2024/01/22 01:29:57;;;;;;;10.98;5.63;;;;;;;;;;5054429;28;20391;-75
2024/01/22 01:32:23;;;;;;;10.38;5.63;;;;;;;;;;5067654;28;20463;-78
2024/01/22 01:34:49;;;;;;;7.72;5.47;;;;;;;;;;5070551;28;20281;-77
2024/01/22 01:37:15;;;;;;;11.27;5.30;;;;;;;;;;5046745;28;20429;-78
2024/01/22 01:39:41;;;;;;;17.02;6.70;;;;;;;;;;5065376;28;20036;-78
2024/01/22 01:42:07;;;;;;;10.23;6.05;;;;;;;;;;5054030;28;20109;-78
2024/01/22 01:44:40;;;;;;;10.60;6.20;;;;;;;;;;5053066;28;20510;-79
2024/01/22 01:47:06;;;;;;;13.95;5.40;;;;;;;;;;5067315;28;20040;-77
2024/01/22 01:49:32;;;;;;;7.45;5.88;;;;;;;;;;5069425;28;20122;-79
2024/01/22 01:51:58;;;;;;;8.18;5.63;;;;;;;;;;5067660;28;20123;-79
2024/01/22 01:54:25;;;;;;;12.27;6.93;;;;;;;;;;5065995;28;20484;-79
2024/01/22 01:56:51;;;;;;;8.23;5.03;;;;;;;;;;5039905;28;20094;-78
2024/01/22 01:59:19;;;;;;;10.05;4.78;;;;;;;;;;5048364;28;20101;-78
2024/01/22 02:01:45;;;;;;;11.35;5.22;;;;;;;;;;5051951;28;20074;-79
2024/01/22 02:04:11;;;;;;;10.18;6.50;;;;;;;;;;5051511;28;20048;-78
2024/01/22 02:06:37;;;;;;;9.95;5.22;;;;;;;;;;5050664;28;20426;-78
2024/01/22 02:09:03;;;;;;;9.10;4.53;;;;;;;;;;5048976;28;20166;-78
2024/01/22 02:11:30;;;;;;;9.57;5.43;;;;;;;;;;5066694;28;20040;-79
2024/01/22 02:13:56;;;;;;;10.10;5.60;;;;;;;;;;5067703;28;20036;-76
2024/01/22 02:16:22;;;;;;;8.93;5.00;;;;;;;;;;5069796;28;20141;-78
2024/01/22 02:18:48;;;;;;;6.95;4.90;;;;;;;;;;5066534;28;20119;-78
2024/01/22 02:21:14;;;;;;;9.07;5.38;;;;;;;;;;5056487;28;20032;-79
2024/01/22 02:23:41;;;;;;;15.52;5.55;;;;;;;;;;5047835;28;20036;-79
2024/01/22 02:26:07;;;;;;;11.35;5.75;;;;;;;;;;5036859;28;20056;-79
2024/01/22 02:28:33;;;;;;;9.57;4.88;;;;;;;;;;5067502;28;20472;-77
2024/01/22 02:31:01;;;;;;;8.65;5.22;;;;;;;;;;5050785;28;20517;-78
2024/01/22 02:33:27;;;;;;;13.40;5.65;;;;;;;;;;5068936;28;20109;-75
2024/01/22 02:35:53;;;;;;;17.63;6.55;;;;;;;;;;5052399;28;20039;-79
2024/01/22 02:38:19;;;;;;;8.93;5.60;;;;;;;;;;5067340;28;20051;-78
2024/01/22 02:40:45;;;;;;;8.82;5.28;;;;;;;;;;5066795;28;20048;-78
2024/01/22 02:43:11;;;;;;;7.93;5.68;;;;;;;;;;5065413;28;20051;-78
2024/01/22 02:45:37;;;;;;;10.55;5.97;;;;;;;;;;5048088;28;20046;-78
2024/01/22 02:48:03;;;;;;;8.05;4.68;;;;;;;;;;5051021;28;20035;-78
2024/01/22 02:50:29;;;;;;;7.47;5.47;;;;;;;;;;5043784;28;20062;-78
2024/01/22 02:52:55;;;;;;;8.90;5.22;;;;;;;;;;5070118;28;20413;-78
2024/01/22 02:55:21;;;;;;;7.85;4.68;;;;;;;;;;5050228;28;20035;-79
2024/01/22 02:57:48;;;;;;;10.43;4.85;;;;;;;;;;5067150;28;20040;-76
2024/01/22 03:00:14;;;;;;;8.77;4.93;;;;;;;;;;5044383;28;20035;-78
2024/01/22 03:02:40;;;;;;;6.72;4.45;;;;;;;;;;5057498;28;20048;-76
2024/01/22 03:05:06;;;;;;;5.97;4.00;;;;;;;;;;5068897;28;20119;-77
2024/01/22 03:07:32;;;;;;;8.27;5.53;;;;;;;;;;5068639;28;20035;-76
2024/01/22 03:09:58;;;;;;;9.23;5.65;;;;;;;;;;5066679;28;20040;-79
2024/01/22 03:12:24;;;;;;;6.50;4.80;;;;;;;;;;5047569;28;20549;-79
2024/01/22 03:14:50;;;;;;;7.38;4.45;;;;;;;;;;5065771;28;20456;-77
2024/01/22 03:17:16;;;;;;;9.23;5.20;;;;;;;;;;5048826;28;20413;-78
2024/01/22 03:19:43;;;;;;;6.97;4.88;;;;;;;;;;5068338;28;20048;-77
2024/01/22 03:22:09;;;;;;;6.75;4.57;;;;;;;;;;5065221;28;20043;-78
2024/01/22 03:24:37;;;;;;;8.65;5.03;;;;;;;;;;5057377;28;21512;-78
2024/01/22 03:27:03;;;;;;;11.55;4.82;;;;;;;;;;5041339;28;20071;-77
2024/01/22 03:29:29;;;;;;;8.45;5.00;;;;;;;;;;5049614;28;20496;-77
2024/01/22 03:31:55;;;;;;;13.02;5.75;;;;;;;;;;5048117;28;20495;-77
2024/01/22 03:34:22;;;;;;;9.85;5.57;;;;;;;;;;5042223;28;20577;-78
2024/01/22 03:36:48;;;;;;;7.63;5.28;;;;;;;;;;5056917;28;21264;-76
2024/01/22 03:39:14;;;;;;;7.18;5.53;;;;;;;;;;5060196;28;20042;-77
2024/01/22 03:41:40;;;;;;;8.20;5.28;;;;;;;;;;5069182;28;20106;-78
2024/01/22 03:44:06;;;;;;;6.60;5.07;;;;;;;;;;5053893;28;20032;-79
2024/01/22 03:46:32;;;;;;;9.02;4.75;;;;;;;;;;5051936;28;20324;-77
2024/01/22 03:48:58;;;;;;;8.82;5.93;;;;;;;;;;5045288;28;20545;-78
2024/01/22 03:51:24;;;;;;;9.98;5.05;;;;;;;;;;5051228;28;20048;-77
2024/01/22 03:53:50;;;;;;;6.00;4.15;;;;;;;;;;5065066;28;20076;-73
2024/01/22 03:56:19;;;;;;;8.90;5.43;;;;;;;;;;5070924;28;20130;-75
2024/01/22 03:58:45;;;;;;;6.63;4.57;;;;;;;;;;5069204;28;20043;-72
2024/01/22 04:01:18;;;;;;;8.40;5.00;;;;;;;;;;5067190;28;20066;-73
2024/01/22 04:03:44;;;;;;;8.50;4.88;;;;;;;;;;5067140;28;20372;-73
2024/01/22 04:06:10;;;;;;;6.60;5.05;;;;;;;;;;5067606;28;20483;-73
2024/01/22 04:08:36;;;;;;;7.57;4.80;;;;;;;;;;5068135;28;20487;-72
2024/01/22 04:11:02;;;;;;;9.10;4.82;;;;;;;;;;5067110;28;20032;-74
2024/01/22 04:13:28;;;;;;;5.53;4.07;;;;;;;;;;5067789;28;20040;-74
2024/01/22 04:15:54;;;;;;;7.07;3.80;;;;;;;;;;5039627;28;20027;-73
2024/01/22 04:18:21;;;;;;;4.90;3.95;;;;;;;;;;5049569;28;20039;-73
2024/01/22 04:20:47;;;;;;;8.52;3.67;;;;;;;;;;5066845;28;20044;-74
2024/01/22 04:23:13;;;;;;;5.70;4.25;;;;;;;;;;5067090;28;20040;-76
2024/01/22 04:25:39;;;;;;;6.35;4.13;;;;;;;;;;5082634;28;20445;-73
2024/01/22 04:28:05;;;;;;;7.53;4.97;;;;;;;;;;5051743;28;20096;-73
2024/01/22 04:30:31;;;;;;;6.82;4.70;;;;;;;;;;5040134;28;20035;-75
2024/01/22 04:32:57;;;;;;;6.78;4.38;;;;;;;;;;5050704;28;20044;-77
2024/01/22 04:35:24;;;;;;;5.93;4.30;;;;;;;;;;5030173;28;20036;-75
2024/01/22 04:37:50;;;;;;;4.53;3.78;;;;;;;;;;5054985;28;20039;-73
2024/01/22 04:40:16;;;;;;;4.10;3.70;;;;;;;;;;5052798;28;20039;-75
2024/01/22 04:42:44;;;;;;;5.50;3.70;;;;;;;;;;5055847;28;20108;-77
2024/01/22 04:45:10;;;;;;;3.78;3.35;;;;;;;;;;5036221;28;20040;-76
2024/01/22 04:47:36;;;;;;;4.68;3.08;;;;;;;;;;5072894;28;20040;-74
2024/01/22 04:50:02;;;;;;;5.90;3.33;;;;;;;;;;5072396;28;20075;-74
2024/01/22 04:52:29;;;;;;;4.95;3.60;;;;;;;;;;5053148;28;20043;-76
2024/01/22 04:54:55;;;;;;;6.15;3.33;;;;;;;;;;5070157;28;20404;-74
2024/01/22 04:57:21;;;;;;;4.57;3.85;;;;;;;;;;5069885;28;20047;-75
2024/01/22 04:59:47;;;;;;;5.72;4.15;;;;;;;;;;5074130;28;20044;-75
2024/01/22 05:02:13;;;;;;;6.85;4.43;;;;;;;;;;5070624;28;20086;-75
2024/01/22 05:04:39;;;;;;;5.47;3.97;;;;;;;;;;5067172;28;20032;-79
2024/01/22 05:07:06;;;;;;;5.60;4.20;;;;;;;;;;5065774;28;20436;-79
2024/01/22 05:09:32;;;;;;;5.13;3.10;;;;;;;;;;5036926;28;20088;-79
2024/01/22 05:11:58;;;;;;;6.10;4.63;;;;;;;;;;5051447;28;20257;-79
2024/01/22 05:14:24;;;;;;;4.95;4.38;;;;;;;;;;5053857;28;20035;-79
2024/01/22 05:16:50;;;;;;;7.72;4.85;;;;;;;;;;5052308;28;20092;-77
2024/01/22 05:19:16;;;;;;;4.25;3.85;;;;;;;;;;5067738;28;20040;-76
2024/01/22 05:21:42;;;;;;;6.25;5.38;;;;;;;;;;5037293;28;20101;-79
2024/01/22 05:24:08;;;;;;;7.20;4.43;;;;;;;;;;5051721;28;20480;-78
2024/01/22 05:26:34;;;;;;;4.85;3.78;;;;;;;;;;5032153;28;20464;-79
2024/01/22 05:29:00;;;;;;;4.00;3.60;;;;;;;;;;5053682;28;20040;-79
2024/01/22 05:31:26;;;;;;;4.35;3.83;;;;;;;;;;5052665;28;20090;-79
2024/01/22 05:33:52;;;;;;;4.32;3.28;;;;;;;;;;5073469;28;20122;-79
2024/01/22 05:36:18;;;;;;;4.63;3.78;;;;;;;;;;5065233;28;20043;-78
2024/01/22 05:38:45;;;;;;;5.57;3.97;;;;;;;;;;5073688;28;20458;-78
2024/01/22 05:41:11;;;;;;;4.55;4.15;;;;;;;;;;5070644;28;20117;-77
2024/01/22 05:43:37;;;;;;;5.07;4.57;;;;;;;;;;5055078;28;20035;-79
2024/01/22 05:46:03;;;;;;;4.40;3.85;;;;;;;;;;5071254;28;20055;-78
2024/01/22 05:48:29;;;;;;;4.55;4.07;;;;;;;;;;5060021;28;20048;-78
2024/01/22 05:50:55;;;;;;;6.43;3.92;;;;;;;;;;5070962;28;20044;-77
2024/01/22 05:53:21;;;;;;;3.38;3.05;;;;;;;;;;5071520;28;21983;-78
2024/01/22 05:55:48;;;;;;;4.68;2.60;;;;;;;;;;5054504;28;20036;-76
2024/01/22 05:58:14;;;;;;;3.35;3.05;;;;;;;;;;5054316;28;20096;-78
2024/01/22 06:00:40;;;;;;;4.50;3.03;;;;;;;;;;5068439;28;20131;-79
2024/01/22 06:03:07;;;;;;;4.63;3.42;;;;;;;;;;5071743;28;20036;-79
2024/01/22 06:05:33;;;;;;;3.80;3.25;;;;;;;;;;5068331;28;20036;-78
2024/01/22 06:07:59;;;;;;;4.80;2.55;;;;;;;;;;5068644;28;20386;-80
2024/01/22 06:10:27;;;;;;;2.53;2.33;;;;;;;;;;5068991;28;20491;-78
2024/01/22 06:12:53;;;;;;;4.03;3.00;;;;;;;;;;5055459;28;20096;-74
2024/01/22 06:15:19;;;;;;;2.40;2.03;;;;;;;;;;5056676;28;20045;-74
2024/01/22 06:17:45;;;;;;;3.95;2.40;;;;;;;;;;5055563;28;20039;-75
2024/01/22 06:20:11;;;;;;;5.72;2.22;;;;;;;;;;5057067;28;20321;-76
2024/01/22 06:22:38;;;;;;;2.92;1.90;;;;;;;;;;5069667;28;20071;-75
2024/01/22 06:25:05;;;;;;;4.22;2.10;;;;;;;;;;5068313;28;20408;-75
2024/01/22 06:27:31;;;;;;;4.50;2.00;;;;;;;;;;5069040;28;20079;-75
2024/01/22 06:29:59;;;;;;;4.88;2.00;;;;;;;;;;5071774;28;20028;-75
2024/01/22 06:32:26;;;;;;;2.60;1.60;;;;;;;;;;5054368;28;20040;-75
2024/01/22 06:34:52;;;;;;;2.83;1.65;;;;;;;;;;5073793;28;20063;-75
2024/01/22 06:37:18;;;;;;;6.70;1.85;;;;;;;;;;5091283;28;20040;-75
2024/01/22 06:39:44;;;;;;;1.75;1.20;;;;;;;;;;5057398;28;20174;-75
2024/01/22 06:42:10;;;;;;;7.28;1.75;;;;;;;;;;5055769;28;20040;-75
2024/01/22 06:44:37;;;;;;;4.78;1.63;;;;;;;;;;5042041;28;20504;-74
2024/01/22 06:47:03;;;;;;;10.68;1.70;;;;;;;;;;5057367;28;20388;-75
2024/01/22 06:49:29;;;;;;;3.30;1.42;;;;;;;;;;5077047;28;20418;-75
2024/01/22 06:51:56;;;;;;;13.75;1.85;;;;;;;;;;5072669;28;20036;-75
2024/01/22 06:54:22;;;;;;;7.35;1.80;;;;;;;;;;5065004;28;20479;-75
2024/01/22 06:56:48;;;;;;;7.00;1.60;;;;;;;;;;5041450;28;20032;-75
2024/01/22 06:59:14;;;;;;;7.57;1.77;;;;;;;;;;5061148;28;20072;-75
2024/01/22 07:01:41;;;;;;;7.88;1.70;;;;;;;;;;5072999;28;20044;-75
2024/01/22 07:04:08;;;;;;;8.05;2.30;;;;;;;;;;5077278;28;20046;-75
2024/01/22 07:06:35;;;;;;;10.43;2.38;;;;;;;;;;5074895;28;20068;-75
2024/01/22 07:09:01;;;;;;;8.18;2.22;;;;;;;;;;5076235;28;20040;-75
2024/01/22 07:11:27;;;;;;;10.50;2.03;;;;;;;;;;5061262;28;20390;-75
2024/01/22 07:13:53;;;;;;;10.90;2.88;;;;;;;;;;5048876;28;20529;-75
2024/01/22 07:16:19;;;;;;;10.85;2.90;;;;;;;;;;5052747;28;20047;-74
2024/01/22 07:18:45;;;;;;;13.32;2.35;;;;;;;;;;5069934;28;20481;-75
2024/01/22 07:21:12;;;;;;;16.77;3.10;;;;;;;;;;5054970;28;20044;-75
2024/01/22 07:23:38;;;;;;;13.15;3.17;;;;;;;;;;5055746;28;20112;-73
2024/01/22 07:26:04;;;;;;;10.20;2.83;;;;;;;;;;5018671;28;20289;-73
2024/01/22 07:28:32;;;;;;;12.40;3.00;;;;;;;;;;5047647;28;20044;-76
2024/01/22 07:30:58;;;;;;;18.00;3.28;;;;;;;;;;5048535;28;20044;-73
2024/01/22 07:33:24;;;;;;;11.40;2.67;;;;;;;;;;5033469;28;20048;-74
2024/01/22 07:35:50;;;;;;;15.43;3.58;;;;;;;;;;5031809;28;20094;-76
2024/01/22 07:38:16;;;;;;;21.52;3.85;;;;;;;;;;5039510;28;20384;-74
2024/01/22 07:40:43;;;;;;;12.27;2.65;;;;;;;;;;5035300;28;20387;-74
2024/01/22 07:43:09;;;;;;;17.73;4.05;;;;;;;;;;5051127;28;20037;-76
2024/01/22 07:45:36;;;;;;;28.67;4.82;;;;;;;;;;5048575;28;20045;-77
2024/01/22 07:48:02;;;;;;;26.25;5.03;;;;;;;;;;5050217;28;20068;-75
2024/01/22 07:50:28;;;;;;;32.78;5.35;;;;;;;;;;5051484;28;20044;-73
2024/01/22 07:52:54;;;;;;;25.05;4.50;;;;;;;;;;5066156;28;20036;-74
2024/01/22 07:55:20;;;;;;;23.25;4.82;;;;;;;;;;5049847;28;20044;-75
2024/01/22 07:57:47;;;;;;;26.98;4.25;;;;;;;;;;5027289;28;20580;-81
2024/01/22 08:00:14;;;;;;;39.53;6.10;;;;;;;;;;5023070;28;20051;-80
2024/01/22 08:02:40;;;;;;;36.28;6.15;;;;;;;;;;5046797;28;20048;-81
2024/01/22 08:05:07;;;;;;;48.22;6.13;;;;;;;;;;5060137;28;20056;-81
2024/01/22 08:07:34;;;;;;;41.35;5.60;;;;;;;;;;5043468;28;20044;-82
2024/01/22 08:10:00;;;;;;;38.38;6.00;;;;;;;;;;5044549;28;20082;-80
2024/01/22 08:12:26;;;;;;;32.70;6.00;;;;;;;;;;5035383;28;20032;-80
2024/01/22 08:14:55;;;;;;;28.00;4.05;;;;;;;;;;5043264;28;20041;-85
2024/01/22 08:17:21;;;;;;;22.67;3.78;;;;;;;;;;5050826;28;20032;-78
2024/01/22 08:19:47;;;;;;;25.42;4.10;;;;;;;;;;5045509;28;20049;-83
2024/01/22 08:22:13;;;;;;;20.50;2.63;;;;;;;;;;5028163;28;20090;-82
2024/01/22 08:24:39;;;;;;;13.60;2.78;;;;;;;;;;5039267;28;20037;-81
2024/01/22 08:27:05;;;;;;;16.33;3.20;;;;;;;;;;5033264;28;20169;-81
2024/01/22 08:29:31;;;;;;;17.73;4.32;;;;;;;;;;5058978;28;20045;-81
2024/01/22 08:31:58;;;;;;;15.00;3.58;;;;;;;;;;5063381;28;20399;-83
2024/01/22 08:34:24;;;;;;;20.70;3.38;;;;;;;;;;5034219;28;20047;-80
2024/01/22 08:36:50;;;;;;;15.07;4.38;;;;;;;;;;5040139;28;20041;-81
2024/01/22 08:39:16;;;;;;;13.93;2.60;;;;;;;;;;5042345;28;20052;-83
2024/01/22 08:41:42;;;;;;;15.02;3.35;;;;;;;;;;5051249;28;20226;-80
2024/01/22 08:44:08;;;;;;;12.55;3.08;;;;;;;;;;5047815;28;20044;-81
2024/01/22 08:46:34;;;;;;;14.20;2.10;;;;;;;;;;5060852;28;20073;-80
2024/01/22 08:49:00;;;;;;;11.05;2.47;;;;;;;;;;5034691;28;20399;-81
2024/01/22 08:51:28;;;;;;;22.27;3.05;;;;;;;;;;5039417;28;20037;-80
2024/01/22 08:53:54;;;;;;;12.75;2.75;;;;;;;;;;5033765;28;20046;-80
2024/01/22 08:56:20;;;;;;;16.05;3.90;;;;;;;;;;5069271;28;20052;-81
2024/01/22 08:58:46;;;;;;;24.77;4.93;;;;;;;;;;5043716;28;20044;-80
2024/01/22 09:01:12;;;;;;;18.23;3.15;;;;;;;;;;5026776;28;20453;-82
2024/01/22 09:03:41;;;;;;;21.27;3.53;;;;;;;;;;5060161;28;20480;-81
2024/01/22 09:06:07;;;;;;;25.77;4.28;;;;;;;;;;5065362;28;20036;-81
2024/01/22 09:08:34;;;;;;;27.42;3.58;;;;;;;;;;5041644;28;20041;-82
2024/01/22 09:11:01;;;;;;;34.47;5.45;;;;;;;;;;5051484;28;20051;-81
2024/01/22 09:13:28;;;;;;;39.60;4.90;;;;;;;;;;5058880;28;20044;-80
2024/01/22 09:15:54;;;;;;;42.97;6.50;;;;;;;;;;5039804;28;20040;-80
2024/01/22 09:18:20;;;;;;;39.60;5.85;;;;;;;;;;5056193;28;20055;-81
2024/01/22 09:20:46;;;;;;;45.30;6.55;;;;;;;;;;5038639;28;20543;-82
2024/01/22 09:23:13;;;;;;;37.42;5.95;;;;;;;;;;5019758;28;20071;-82
2024/01/22 09:25:41;;;;;;;32.28;5.30;;;;;;;;;;5072136;28;20040;-81
2024/01/22 09:28:08;;;;;;;45.80;8.05;;;;;;;;;;5074531;28;20043;-83
2024/01/22 09:30:34;;;;;;;37.92;6.55;;;;;;;;;;5059469;28;20492;-79
2024/01/22 09:33:00;;;;;;;58.95;7.18;;;;;;;;;;5075356;28;20130;-82
2024/01/22 09:35:26;;;;;;;55.45;8.18;;;;;;;;;;5058540;28;20487;-81
2024/01/22 09:37:54;;;;;;;58.42;8.05;;;;;;;;;;5079230;28;20082;-82
2024/01/22 09:40:23;;;;;;;66.55;10.13;;;;;;;;;;5065012;28;20056;-81
2024/01/22 09:42:50;;;;;;;63.92;9.35;;;;;;;;;;5060336;28;20056;-82
2024/01/22 09:45:16;;;;;;;47.65;7.50;;;;;;;;;;5073094;28;20387;-86
2024/01/22 09:47:44;;;;;;;64.60;9.77;;;;;;;;;;5061745;28;20035;-85
2024/01/22 09:50:11;;;;;;;75.35;11.32;;;;;;;;;;5082201;28;20058;-86
2024/01/22 09:52:39;;;;;;;61.72;9.10;;;;;;;;;;5059728;28;20119;-86
2024/01/22 09:55:06;;;;;;;69.43;9.48;;;;;;;;;;5053412;28;20048;-85
2024/01/22 09:57:32;;;;;;;58.72;9.57;;;;;;;;;;5060541;28;20484;-87
2024/01/22 09:59:59;;;;;;;63.30;8.57;;;;;;;;;;5056854;28;20118;-86
2024/01/22 10:02:26;;;;;;;63.05;8.18;;;;;;;;;;5059088;28;20548;-85
2024/01/22 10:04:52;;;;;;;53.72;9.77;;;;;;;;;;5057917;28;20109;-85
2024/01/22 10:07:19;;;;;;;66.25;10.32;;;;;;;;;;5061103;28;20039;-85
2024/01/22 10:09:47;;;;;;;58.00;8.52;;;;;;;;;;5041646;28;20040;-79
2024/01/22 10:12:13;;;;;;;58.65;8.35;;;;;;;;;;5063937;28;20490;-79
2024/01/22 10:14:41;;;;;;;64.47;8.63;;;;;;;;;;5053927;28;20419;-77
2024/01/22 10:17:17;;;;;;;57.30;10.25;;;;;;;;;;5043213;28;20519;-78
2024/01/22 10:19:45;;;;;;;46.95;8.02;;;;;;;;;;5076035;28;20051;-78
2024/01/22 10:22:12;;;;;;;48.35;7.75;;;;;;;;;;5073786;28;20044;-78
2024/01/22 10:24:39;;;;;;;50.50;8.38;;;;;;;;;;5045913;28;20040;-77
2024/01/22 10:27:16;;;;;;;51.20;8.00;;;;;;;;;;5042938;28;20067;-79
2024/01/22 10:29:46;;;;;;;38.45;6.80;;;;;;;;;;5062831;28;20093;-78
2024/01/22 10:32:12;;;;;;;30.08;6.43;;;;;;;;;;5072620;28;20047;-78
2024/01/22 10:34:42;;;;;;;34.83;7.55;;;;;;;;;;5053671;28;20043;-78
2024/01/22 10:37:09;;;;;;;42.80;6.80;;;;;;;;;;5077674;28;20067;-78
2024/01/22 10:39:36;;;;;;;41.28;5.93;;;;;;;;;;5059067;28;20047;-78
2024/01/22 10:42:08;;;;;;;37.70;6.45;;;;;;;;;;5056999;28;20065;-78
2024/01/22 10:44:37;;;;;;;48.60;7.03;;;;;;;;;;5058353;28;20036;-78
2024/01/22 10:47:04;;;;;;;38.35;5.70;;;;;;;;;;5066595;28;20507;-79
2024/01/22 10:49:31;;;;;;;34.75;5.63;;;;;;;;;;5056248;28;20039;-79
2024/01/22 10:52:01;;;;;;;26.45;5.43;;;;;;;;;;5071364;28;20040;-78
2024/01/22 10:54:27;;;;;;;50.08;7.40;;;;;;;;;;5079756;28;20126;-79
2024/01/22 10:57:04;;;;;;;38.80;7.30;;;;;;;;;;5074413;28;20096;-80
2024/01/22 10:59:38;;;;;;;29.42;5.88;;;;;;;;;;5076607;28;20173;-80
2024/01/22 11:02:09;;;;;;;29.70;6.18;;;;;;;;;;5070893;28;20039;-80
2024/01/22 11:04:41;;;;;;;27.95;5.57;;;;;;;;;;5050898;28;20032;-80
2024/01/22 11:07:07;;;;;;;30.13;5.22;;;;;;;;;;5078144;28;20035;-79
2024/01/22 11:09:33;;;;;;;17.80;4.68;;;;;;;;;;5072605;28;20029;-79
2024/01/22 11:12:03;;;;;;;30.15;5.45;;;;;;;;;;5057711;28;20071;-79
2024/01/22 11:14:29;;;;;;;27.75;5.40;;;;;;;;;;5071161;28;20036;-80
2024/01/22 11:16:55;;;;;;;23.13;3.80;;;;;;;;;;5060703;28;20051;-79
2024/01/22 11:19:22;;;;;;;19.92;4.20;;;;;;;;;;5064746;28;20513;-78
2024/01/22 11:21:49;;;;;;;21.30;4.38;;;;;;;;;;5056578;28;20044;-80
2024/01/22 11:24:19;;;;;;;23.10;4.15;;;;;;;;;;5085297;28;20055;-78
2024/01/22 11:26:54;;;;;;;18.80;3.67;;;;;;;;;;5076366;28;20054;-80
2024/01/22 11:29:24;;;;;;;19.88;4.07;;;;;;;;;;5060588;28;20044;-79
2024/01/22 11:31:50;;;;;;;22.77;3.92;;;;;;;;;;5063648;28;20050;-79
2024/01/22 11:34:38;;;;;;;22.42;4.28;;;11.80;99.90;;;;;;5069197;28;20438;-79
2024/01/22 11:37:04;;;;;;;18.95;3.78;;;;;;;;;;5037413;28;20138;-80
2024/01/22 11:39:39;;;;;;;22.17;4.40;;;;;;;;;;5046051;28;20055;-80
2024/01/22 11:42:22;;;;;;;24.20;5.35;;;;;;;;;;5058837;28;20043;-79
2024/01/22 11:44:49;;;;;;;25.70;4.30;;;;;;;;;;5056746;28;20035;-80
2024/01/22 11:47:16;;;;;;;21.88;4.38;;;;;;;;;;5071961;28;20511;-79
2024/01/22 11:49:42;;;;;;;19.90;4.30;;;;;;;;;;5070832;28;20059;-79
2024/01/22 11:52:11;;;;;;;22.58;3.78;;;;;;;;;;5054790;28;20040;-79
2024/01/22 11:54:53;;;;;;;26.75;5.13;;;;;;;;;;5072977;28;20032;-76
2024/01/22 11:57:19;;;;;;;17.25;4.07;;;;;;;;;;5048364;28;20158;-79
2024/01/22 12:00:04;;;;;;;24.90;4.70;;;;;;;;;;5046689;28;20082;-77
2024/01/22 12:02:31;;;;;;;21.27;4.38;;;;;;;;;;5051473;28;20047;-78
2024/01/22 12:05:01;;;;;;;26.88;4.15;;;;;;;;;;5041645;28;20039;-78
2024/01/22 12:07:31;;;;;;;27.10;4.65;;;;;;;;;;5059544;28;20478;-77
2024/01/22 12:09:57;;;;;;;28.30;4.78;;;;;;;;;;5058568;28;20042;-78
2024/01/22 12:12:23;;;;;;;19.08;4.25;;;;;;;;;;5036768;28;20045;-78
2024/01/22 12:14:56;;;;;;;21.02;3.70;;;;;;;;;;5045233;28;20043;-78
2024/01/22 12:17:22;;;;;;;20.58;3.85;;;;;;;;;;5068175;28;20426;-78
2024/01/22 12:19:53;;;;;;;20.20;4.20;;;;;;;;;;5072162;28;20036;-77
2024/01/22 12:22:20;;;;;;;28.52;5.85;;;;;;;;;;5049224;28;20060;-77
2024/01/22 12:25:02;;;;;;;25.90;4.32;;;;;;;;;;5058701;28;20039;-77
2024/01/22 12:27:29;;;;;;;22.58;4.53;;;;;;;;;;5064051;28;20045;-77
2024/01/22 12:29:59;;;;;;;22.48;4.10;;;;;;;;;;5061627;28;20119;-78
2024/01/22 12:32:25;;;;;;;14.20;3.53;;;;;;;;;;5026122;28;20480;-77
2024/01/22 12:34:55;;;;;;;24.30;4.28;;;;;;;;;;5049603;28;20037;-77
2024/01/22 12:37:23;;;;;;;20.13;3.78;;;;;;;;;;5052247;28;20503;-78
2024/01/22 12:39:49;;;;;;;22.30;5.18;;;;;;;;;;5039653;28;20136;-78
2024/01/22 12:42:19;;;;;;;23.55;4.30;;;;;;;;;;5045257;28;20123;-78
2024/01/22 12:45:01;;;;;;;21.13;4.40;;;;;;;;;;5056816;28;20495;-77
2024/01/22 12:47:30;;;;;;;25.92;4.57;;;;;;;;;;5032416;28;20043;-78
2024/01/22 12:49:56;;;;;;;22.15;3.88;;;;;;;;;;5054147;28;20039;-77
2024/01/22 12:52:23;;;;;;;24.60;3.85;;;;;;;;;;5041360;28;20051;-77
2024/01/22 12:54:49;;;;;;;17.08;3.95;;;;;;;;;;5036842;28;20036;-77
2024/01/22 12:57:15;;;;;;;19.58;3.75;;;;;;;;;;5019545;28;20048;-77
2024/01/22 12:59:46;;;;;;;19.80;4.05;;;;;;;;;;5055632;28;20041;-77
2024/01/22 13:02:12;;;;;;;21.25;4.50;;;;;;;;;;5039867;28;20075;-77
2024/01/22 13:04:38;;;;;;;17.42;3.53;;;;;;;;;;5037850;28;20079;-78
2024/01/22 13:07:04;;;;;;;19.92;3.30;;;;;;;;;;5067735;28;20043;-77
2024/01/22 13:09:30;;;;;;;15.88;3.35;;;;;;;;;;5030635;28;20028;-77
2024/01/22 13:11:56;;;;;;;18.48;3.40;;;;;;;;;;5044479;28;20036;-77
2024/01/22 13:14:23;;;;;;;16.45;3.75;;;;;;;;;;5046796;28;20387;-77
2024/01/22 13:16:49;;;;;;;15.82;3.67;;;;;;;;;;5056896;28;20044;-76
2024/01/22 13:19:15;;;;;;;16.17;2.75;;;;;;;;;;5038497;28;20043;-76
2024/01/22 13:21:41;;;;;;;18.52;3.50;;;;;;;;;;5072616;28;20070;-76
2024/01/22 13:24:10;;;;;;;27.25;5.07;;;;;;;;;;5016003;28;20457;-76
2024/01/22 13:26:37;;;;;;;15.85;3.22;;;;;;;;;;5069458;28;20088;-76
2024/01/22 13:29:03;;;;;;;22.27;4.05;;;;;;;;;;5066943;28;20036;-76
2024/01/22 13:31:29;;;;;;;21.67;3.58;;;;;;;;;;5061166;28;20479;-75
2024/01/22 13:33:57;;;;;;;19.05;3.88;;;;;;;;;;5080868;28;20044;-76
2024/01/22 13:36:23;;;;;;;9.90;3.10;;;;;;;;;;5050946;28;20554;-75
2024/01/22 13:38:49;;;;;;;23.08;4.30;;;;;;;;;;5074690;28;20091;-76
2024/01/22 13:41:16;;;;;;;20.20;4.28;;;;;;;;;;5030731;28;20492;-76
2024/01/22 13:43:43;;;;;;;24.05;4.13;;;;;;;;;;5034493;28;20411;-75
2024/01/22 13:46:10;;;;;;;22.05;4.55;;;;;;;;;;5055523;28;20043;-76
2024/01/22 13:48:36;;;;;;;22.48;4.43;;;;;;;;;;5053922;28;20051;-75
2024/01/22 13:51:02;;;;;;;22.83;4.57;;;;;;;;;;5048845;28;20043;-77
2024/01/22 13:53:29;;;;;;;22.42;4.35;;;;;;;;;;5057313;28;20036;-75
2024/01/22 13:55:55;;;;;;;21.02;4.10;;;;;;;;;;5059109;28;20039;-76
2024/01/22 13:58:21;;;;;;;19.23;3.75;;;;;;;;;;5076438;28;20048;-77
2024/01/22 14:00:48;;;;;;;25.10;4.82;;;;;;;;;;5080756;28;20054;-78
2024/01/22 14:03:15;;;;;;;24.17;3.72;;;;;;;;;;5058426;28;20102;-76
2024/01/22 14:05:41;;;;;;;20.15;4.07;;;;;;;;;;5073897;28;20039;-77
2024/01/22 14:08:07;;;;;;;21.42;4.53;;;;;;;;;;5054650;28;20067;-77
2024/01/22 14:10:33;;;;;;;23.98;4.32;;;;;;;;;;5072024;28;20036;-76
2024/01/22 14:12:59;;;;;;;16.92;3.38;;;;;;;;;;5075370;28;20036;-76
2024/01/22 14:15:25;;;;;;;28.52;4.57;;;;;;;;;;5054784;28;20040;-76
2024/01/22 14:17:51;;;;;;;18.90;4.07;;;;;;;;;;5050707;28;20047;-76
2024/01/22 14:20:18;;;;;;;19.65;4.47;;;;;;;;;;5054556;28;20491;-76
2024/01/22 14:22:44;;;;;;;22.20;4.30;;;;;;;;;;5058971;28;20040;-76
2024/01/22 14:25:11;;;;;;;22.50;4.88;;;;;;;;;;5059071;28;20040;-78
2024/01/22 14:27:37;;;;;;;25.65;5.53;;;;;;;;;;5061213;28;20447;-76
2024/01/22 14:30:05;;;;;;;20.80;4.35;;;;;;;;;;5087001;28;20488;-76
2024/01/22 14:32:31;;;;;;;26.00;4.95;;;;;;;;;;5046920;28;20070;-76